Groton, New York
Current Conditions -  °F | °C
As of 4:15 AM on Monday 20 Oct 2014 (Local Time) from KN03 Reporting Station
Overcast Overcast  
Wind Chill: 32°   Ceiling: 12000
Heat Index: 32°   Visibility: 10mi
Dew Point: 32°   Wind: 0mph
Humidity: 100%   Direction: NA
Pressure: 30.02"   Gusts: NA
Location:  42.59°N, 76.37°W
Report Text: KN03 200815Z AUTO 00000KT 10SM OVC120 00/00 A3002 RMK AO2
Loading
Personal Weather Stations






























Interactive Weather Map
Tropical Storm Tracking
New forecast layout! Learn more

10-Day Weather Forecast

Advertisements
Track Severe Weather on mobile